createdAt,value
2023-03-24T00:00:32.344Z,13.68
2023-03-24T00:02:36.357Z,13.65
2023-03-24T00:03:36.479Z,13.65
2023-03-24T00:05:40.218Z,13.72
2023-03-24T00:06:40.197Z,13.72
2023-03-24T00:08:44.165Z,13.68
2023-03-24T00:09:44.139Z,13.74
2023-03-24T00:11:48.086Z,13.79
2023-03-24T00:12:48.067Z,13.68
2023-03-24T00:14:52.014Z,13.75
2023-03-24T00:15:52.008Z,13.68
2023-03-24T00:17:56.028Z,13.79
2023-03-24T00:18:55.929Z,13.75
2023-03-24T00:20:59.882Z,13.74
2023-03-24T00:21:59.857Z,13.70
2023-03-24T00:24:03.799Z,13.78
2023-03-24T00:25:03.791Z,13.75
2023-03-24T00:26:56.671Z,13.72
2023-03-24T00:27:56.647Z,13.68
2023-03-24T00:30:00.600Z,13.71
2023-03-24T00:31:00.608Z,13.63
2023-03-24T00:33:04.597Z,13.79
2023-03-24T00:34:04.516Z,13.67
2023-03-24T00:36:08.526Z,13.72
2023-03-24T00:37:08.452Z,13.63
2023-03-24T00:39:12.398Z,13.63
2023-03-24T00:40:12.414Z,13.68
2023-03-24T00:42:16.337Z,13.63
2023-03-24T00:43:16.315Z,13.67
2023-03-24T00:45:20.500Z,13.60
2023-03-24T00:46:20.291Z,13.65
2023-03-24T00:48:24.212Z,13.67
2023-03-24T00:49:24.191Z,13.59
2023-03-24T00:51:28.144Z,13.57
2023-03-24T00:52:28.123Z,13.53
2023-03-24T00:54:32.073Z,13.62
2023-03-24T00:55:32.058Z,13.60
2023-03-24T00:57:36.030Z,13.53
2023-03-24T00:58:35.996Z,13.53
2023-03-24T01:00:39.938Z,13.53
2023-03-24T01:01:39.932Z,13.50
2023-03-24T01:03:43.867Z,13.56
2023-03-24T01:04:43.850Z,13.56
2023-03-24T01:06:36.796Z,13.47
2023-03-24T01:07:36.706Z,13.46
2023-03-24T01:09:40.652Z,13.46
2023-03-24T01:10:40.633Z,13.49
2023-03-24T01:12:44.586Z,13.50
2023-03-24T01:13:44.571Z,13.52
2023-03-24T01:15:48.510Z,13.42
2023-03-24T01:16:48.495Z,13.44
2023-03-24T01:18:52.450Z,13.41
2023-03-24T01:19:52.425Z,13.44
2023-03-24T01:21:56.377Z,13.44
2023-03-24T01:22:56.353Z,13.42
2023-03-24T01:24:49.423Z,13.44
2023-03-24T01:25:49.410Z,13.44
2023-03-24T01:27:53.367Z,13.41
2023-03-24T01:28:53.350Z,13.42
2023-03-24T01:30:57.291Z,13.49
2023-03-24T01:31:57.294Z,13.49
2023-03-24T01:34:01.265Z,13.54
2023-03-24T01:35:01.216Z,13.57
2023-03-24T01:36:54.099Z,13.53
2023-03-24T01:37:54.072Z,13.47
2023-03-24T01:39:58.026Z,13.50
2023-03-24T01:40:58.008Z,13.50
2023-03-24T01:43:01.970Z,13.49
2023-03-24T01:44:01.947Z,13.42
2023-03-24T01:46:05.939Z,13.42
2023-03-24T01:47:05.874Z,13.53
2023-03-24T01:49:09.822Z,13.47
2023-03-24T01:50:09.808Z,13.42
2023-03-24T01:52:13.755Z,13.47
2023-03-24T01:53:13.735Z,13.46
2023-03-24T01:55:17.684Z,13.44
2023-03-24T01:56:17.672Z,13.37
2023-03-24T01:58:21.618Z,13.53
2023-03-24T01:59:21.604Z,13.49
2023-03-24T02:01:25.586Z,13.41
2023-03-24T02:02:25.543Z,13.42
2023-03-24T02:04:29.499Z,13.46
2023-03-24T02:05:29.462Z,13.49
2023-03-24T02:07:33.416Z,13.57
2023-03-24T02:08:33.389Z,13.53
2023-03-24T02:10:37.336Z,13.49
2023-03-24T02:11:37.317Z,13.57
2023-03-24T02:13:41.269Z,13.54
2023-03-24T02:14:41.263Z,13.52
2023-03-24T02:16:34.218Z,13.60
2023-03-24T02:17:34.147Z,13.49
2023-03-24T02:19:38.170Z,13.53
2023-03-24T02:20:38.037Z,13.47
2023-03-24T02:22:42.069Z,13.57
2023-03-24T02:23:41.972Z,13.46
2023-03-24T02:25:45.922Z,13.46
2023-03-24T02:26:45.900Z,13.52
2023-03-24T02:28:49.855Z,13.53
2023-03-24T02:29:49.838Z,13.49
2023-03-24T02:31:53.818Z,13.42
2023-03-24T02:32:53.806Z,13.39
2023-03-24T02:34:46.860Z,13.42
2023-03-24T02:35:46.826Z,13.41
2023-03-24T02:37:50.769Z,13.33
2023-03-24T02:38:50.758Z,13.30
2023-03-24T02:40:54.706Z,13.30
2023-03-24T02:41:55.195Z,13.38
2023-03-24T02:43:58.664Z,13.37
2023-03-24T02:44:58.624Z,13.27
2023-03-24T02:46:51.494Z,13.35
2023-03-24T02:47:51.564Z,13.30
2023-03-24T02:49:55.409Z,13.30
2023-03-24T02:50:55.397Z,13.30
2023-03-24T02:52:59.344Z,13.33
2023-03-24T02:53:59.325Z,13.28
2023-03-24T02:56:03.271Z,13.38
2023-03-24T02:57:03.277Z,13.42
2023-03-24T02:59:07.209Z,13.42
2023-03-24T03:00:07.192Z,13.31
2023-03-24T03:02:11.141Z,13.39
2023-03-24T03:03:11.118Z,13.41
2023-03-24T03:05:15.092Z,13.38
2023-03-24T03:06:15.046Z,13.39
2023-03-24T03:08:18.995Z,13.44
2023-03-24T03:09:18.980Z,13.37
2023-03-24T03:11:22.926Z,13.33
2023-03-24T03:12:22.903Z,13.42
2023-03-24T03:14:26.857Z,13.33
2023-03-24T03:15:26.834Z,13.37
2023-03-24T03:17:30.886Z,13.27
2023-03-24T03:18:30.766Z,13.30
2023-03-24T03:20:34.726Z,13.41
2023-03-24T03:21:34.699Z,13.39
2023-03-24T03:23:38.662Z,13.46
2023-03-24T03:24:38.635Z,13.52
2023-03-24T03:26:31.505Z,13.47
2023-03-24T03:27:31.490Z,13.52
2023-03-24T03:29:35.460Z,13.46
2023-03-24T03:30:35.416Z,13.52
2023-03-24T03:32:39.487Z,13.54
2023-03-24T03:33:39.366Z,13.49
2023-03-24T03:35:43.579Z,13.52
2023-03-24T03:36:43.292Z,13.54
2023-03-24T03:38:47.250Z,13.57
2023-03-24T03:39:47.232Z,13.50
2023-03-24T03:41:51.177Z,13.56
2023-03-24T03:42:51.157Z,13.54
2023-03-24T03:44:55.209Z,13.67
2023-03-24T03:45:55.132Z,13.68
2023-03-24T03:47:59.046Z,13.72
2023-03-24T03:48:59.024Z,13.74
2023-03-24T03:52:02.954Z,14.05
2023-03-24T03:54:06.907Z,14.20
2023-03-24T03:55:06.894Z,14.15
2023-03-24T03:56:59.803Z,14.25
2023-03-24T03:57:59.739Z,14.30
2023-03-24T04:00:03.695Z,14.36
2023-03-24T04:01:03.662Z,14.43
2023-03-24T04:03:07.727Z,14.32
2023-03-24T04:04:07.600Z,14.32
2023-03-24T04:06:11.537Z,14.25
2023-03-24T04:07:11.525Z,14.18
2023-03-24T04:09:15.472Z,14.37
2023-03-24T04:10:15.466Z,14.43
2023-03-24T04:12:20.415Z,14.43
2023-03-24T04:13:20.394Z,14.45
2023-03-24T04:15:24.349Z,14.53
2023-03-24T04:16:24.361Z,14.50
2023-03-24T04:18:28.260Z,14.65
2023-03-24T04:19:28.250Z,14.70
2023-03-24T04:21:32.783Z,14.92
2023-03-24T04:22:32.416Z,15.09
2023-03-24T04:24:36.324Z,15.14
2023-03-24T04:25:36.306Z,15.02
2023-03-24T04:27:40.259Z,15.07
2023-03-24T04:28:40.235Z,15.07
2023-03-24T04:30:44.178Z,15.07
2023-03-24T04:31:44.233Z,15.06
2023-03-24T04:33:48.112Z,15.06
2023-03-24T04:34:48.097Z,15.15
2023-03-24T04:36:40.977Z,14.99
2023-03-24T04:37:40.960Z,14.96
2023-03-24T04:39:44.897Z,14.94
2023-03-24T04:40:45.049Z,14.94
2023-03-24T04:42:48.824Z,14.84
2023-03-24T04:43:48.816Z,14.82
2023-03-24T04:45:52.768Z,14.85
2023-03-24T04:46:52.736Z,14.70
2023-03-24T04:48:56.682Z,14.79
2023-03-24T04:49:56.672Z,14.84
2023-03-24T04:52:00.621Z,14.79
2023-03-24T04:53:00.612Z,14.84
2023-03-24T04:55:04.546Z,14.79
2023-03-24T04:56:04.523Z,14.77
2023-03-24T04:58:08.474Z,14.59
2023-03-24T04:59:08.456Z,14.62
2023-03-24T05:01:12.464Z,14.51
2023-03-24T05:02:12.388Z,14.51
2023-03-24T05:04:16.417Z,14.41
2023-03-24T05:05:16.312Z,14.45
2023-03-24T05:07:20.310Z,14.37
2023-03-24T05:08:20.239Z,14.35
2023-03-24T05:10:24.184Z,14.22
2023-03-24T05:11:24.163Z,14.25
2023-03-24T05:13:28.113Z,14.25
2023-03-24T05:14:28.100Z,14.23
2023-03-24T05:16:20.997Z,14.35
2023-03-24T05:17:20.960Z,14.23
2023-03-24T05:19:24.906Z,14.28
2023-03-24T05:20:24.886Z,14.32
2023-03-24T05:22:28.833Z,14.26
2023-03-24T05:23:28.816Z,14.30
2023-03-24T05:25:32.764Z,14.35
2023-03-24T05:26:33.378Z,14.35
2023-03-24T05:28:37.174Z,14.23
2023-03-24T05:29:37.175Z,14.23
2023-03-24T05:30:37.168Z,14.18
2023-03-24T05:31:37.180Z,14.20
2023-03-24T05:32:37.155Z,14.23
2023-03-24T05:33:37.132Z,14.22
2023-03-24T05:34:37.121Z,14.17
2023-03-24T05:35:37.154Z,14.15
2023-03-24T05:36:37.110Z,14.28
2023-03-24T05:37:37.107Z,14.32
2023-03-24T05:38:37.087Z,14.33
2023-03-24T05:39:37.078Z,14.36
2023-03-24T05:40:37.067Z,14.36
2023-03-24T05:41:37.059Z,14.35
2023-03-24T05:42:37.049Z,14.32
2023-03-24T05:43:37.047Z,14.35
2023-03-24T05:44:37.033Z,14.41
2023-03-24T05:45:37.030Z,14.41
2023-03-24T05:46:37.083Z,14.43
2023-03-24T05:47:37.021Z,14.45
2023-03-24T05:48:36.994Z,14.37
2023-03-24T05:49:36.992Z,14.41
2023-03-24T05:50:36.980Z,14.37
2023-03-24T05:51:36.974Z,14.45
2023-03-24T05:52:36.960Z,14.60
2023-03-24T05:53:36.960Z,14.58
2023-03-24T05:54:36.946Z,14.48
2023-03-24T05:55:36.942Z,14.45
2023-03-24T05:56:36.981Z,14.43
2023-03-24T05:57:36.916Z,14.54
2023-03-24T05:58:36.921Z,14.47
2023-03-24T05:59:36.901Z,14.47
2023-03-24T06:00:36.889Z,14.47
2023-03-24T06:01:36.885Z,14.41
2023-03-24T06:02:37.032Z,14.47
2023-03-24T06:03:36.981Z,14.55
2023-03-24T06:04:36.953Z,14.47
2023-03-24T06:05:36.852Z,14.43
2023-03-24T06:06:36.837Z,14.50
2023-03-24T06:07:36.830Z,14.48
2023-03-24T06:08:36.822Z,14.45
2023-03-24T06:09:39.000Z,14.50
2023-03-24T06:10:36.864Z,14.45
2023-03-24T06:11:36.796Z,14.50
2023-03-24T06:12:36.785Z,14.47
2023-03-24T06:13:36.778Z,14.54
2023-03-24T06:14:36.775Z,14.47
2023-03-24T06:15:36.849Z,14.50
2023-03-24T06:16:36.788Z,14.45
2023-03-24T06:17:36.757Z,14.40
2023-03-24T06:18:36.734Z,14.50
2023-03-24T06:19:36.729Z,14.50
2023-03-24T06:20:36.719Z,14.45
2023-03-24T06:21:36.711Z,14.43
2023-03-24T06:22:36.700Z,14.43
2023-03-24T06:23:36.694Z,14.36
2023-03-24T06:24:36.700Z,14.40
2023-03-24T06:25:36.682Z,14.37
2023-03-24T06:26:36.668Z,14.48
2023-03-24T06:27:36.662Z,14.37
2023-03-24T06:28:36.649Z,14.33
2023-03-24T06:29:36.648Z,14.43
2023-03-24T06:30:36.637Z,14.44
2023-03-24T06:31:36.660Z,14.35
2023-03-24T06:32:36.650Z,14.41
2023-03-24T06:33:36.609Z,14.32
2023-03-24T06:34:36.600Z,14.45
2023-03-24T06:35:36.621Z,14.33
2023-03-24T06:36:36.601Z,14.36
2023-03-24T06:37:36.599Z,14.33
2023-03-24T06:38:36.568Z,14.29
2023-03-24T06:39:36.574Z,14.32
2023-03-24T06:40:36.552Z,14.35
2023-03-24T06:41:36.546Z,14.33
2023-03-24T06:42:36.550Z,14.33
2023-03-24T06:43:36.536Z,14.30
2023-03-24T06:44:36.520Z,14.33
2023-03-24T06:45:36.513Z,14.33
2023-03-24T06:46:36.531Z,14.35
2023-03-24T06:47:36.543Z,14.37
2023-03-24T06:48:36.486Z,14.33
2023-03-24T06:49:36.478Z,14.36
2023-03-24T06:50:36.466Z,14.36
2023-03-24T06:51:36.471Z,14.41
2023-03-24T06:52:36.462Z,14.41
2023-03-24T06:53:36.444Z,14.51
2023-03-24T06:54:36.438Z,14.47
2023-03-24T06:55:36.437Z,14.45
2023-03-24T06:56:36.441Z,14.54
2023-03-24T06:57:36.418Z,14.65
2023-03-24T06:58:36.403Z,14.54
2023-03-24T06:59:36.399Z,14.48
2023-03-24T07:00:36.384Z,14.66
2023-03-24T07:01:36.436Z,14.55
2023-03-24T07:02:36.403Z,14.63
2023-03-24T07:03:36.501Z,14.54
2023-03-24T07:04:36.364Z,14.55
2023-03-24T07:05:36.348Z,14.60
2023-03-24T07:06:46.576Z,14.58
2023-03-24T07:08:08.362Z,14.60
2023-03-24T07:08:38.609Z,14.60
2023-03-24T07:09:36.319Z,14.50
2023-03-24T07:10:36.304Z,14.45
2023-03-24T07:11:36.298Z,14.62
2023-03-24T07:12:36.287Z,14.48
2023-03-24T07:13:36.283Z,14.50
2023-03-24T07:14:36.268Z,14.53
2023-03-24T07:15:36.267Z,14.54
2023-03-24T07:16:36.314Z,14.51
2023-03-24T07:17:36.316Z,14.47
2023-03-24T07:18:36.289Z,14.50
2023-03-24T07:19:36.240Z,14.54
2023-03-24T07:20:36.222Z,14.51
2023-03-24T07:21:43.369Z,14.47
2023-03-24T07:23:40.199Z,14.51
2023-03-24T07:24:40.148Z,14.58
2023-03-24T07:26:33.548Z,14.48
2023-03-24T07:27:33.518Z,14.44
2023-03-24T07:28:33.539Z,14.51
2023-03-24T07:29:33.587Z,14.50
2023-03-24T07:30:39.957Z,14.54
2023-03-24T07:31:33.506Z,14.45
2023-03-24T07:32:33.549Z,14.48
2023-03-24T07:33:33.492Z,14.44
2023-03-24T07:34:33.484Z,14.48
2023-03-24T07:35:33.508Z,14.45
2023-03-24T07:36:33.461Z,14.47
2023-03-24T07:37:33.452Z,14.58
2023-03-24T07:38:33.438Z,14.51
2023-03-24T07:39:33.447Z,14.48
2023-03-24T07:40:33.427Z,14.45
2023-03-24T07:41:33.410Z,14.50
2023-03-24T07:42:33.410Z,14.48
2023-03-24T07:43:33.404Z,14.50
2023-03-24T07:44:33.400Z,14.40
2023-03-24T07:45:33.432Z,14.37
2023-03-24T07:46:33.456Z,14.43
2023-03-24T07:47:33.414Z,14.43
2023-03-24T07:48:33.360Z,14.45
2023-03-24T07:49:33.350Z,14.35
2023-03-24T07:50:33.373Z,14.40
2023-03-24T07:51:37.076Z,14.33
2023-03-24T07:52:33.582Z,14.36
2023-03-24T07:53:33.329Z,14.36
2023-03-24T07:54:33.315Z,14.37
2023-03-24T07:55:33.306Z,14.40
2023-03-24T07:56:33.315Z,14.36
2023-03-24T07:57:34.193Z,14.40
2023-03-24T07:58:33.284Z,14.36
2023-03-24T07:59:33.292Z,14.37
2023-03-24T08:00:33.271Z,14.43
2023-03-24T08:01:33.247Z,14.35
2023-03-24T08:02:33.416Z,14.41
2023-03-24T08:03:33.313Z,14.43
2023-03-24T08:04:33.298Z,14.43
2023-03-24T08:05:33.333Z,14.41
2023-03-24T08:06:33.207Z,14.43
2023-03-24T08:07:33.204Z,14.44
2023-03-24T08:08:33.196Z,14.58
2023-03-24T08:09:33.189Z,14.54
2023-03-24T08:10:33.180Z,14.51
2023-03-24T08:11:33.161Z,14.51
2023-03-24T08:12:33.160Z,14.59
2023-03-24T08:13:33.156Z,14.54
2023-03-24T08:14:33.183Z,14.63
2023-03-24T08:15:33.161Z,14.79
2023-03-24T08:16:33.176Z,14.78
2023-03-24T08:17:33.165Z,14.81
2023-03-24T08:18:33.116Z,14.78
2023-03-24T08:19:33.100Z,14.91
2023-03-24T08:20:33.105Z,14.96
2023-03-24T08:21:33.094Z,15.06
2023-03-24T08:22:33.092Z,15.07
2023-03-24T08:23:33.076Z,15.07
2023-03-24T08:24:33.088Z,14.99
2023-03-24T08:25:33.081Z,15.03
2023-03-24T08:26:33.041Z,15.09
2023-03-24T08:27:33.094Z,15.03
2023-03-24T08:28:33.033Z,15.06
2023-03-24T08:29:33.032Z,15.07
2023-03-24T08:30:33.024Z,15.07
2023-03-24T08:31:33.012Z,15.03
2023-03-24T08:32:33.012Z,15.02
2023-03-24T08:33:32.994Z,15.07
2023-03-24T08:34:32.980Z,15.04
2023-03-24T08:35:32.974Z,15.09
2023-03-24T08:36:32.962Z,15.06
2023-03-24T08:37:32.974Z,15.07
2023-03-24T08:38:32.948Z,15.04
2023-03-24T08:39:32.944Z,15.09
2023-03-24T08:40:32.935Z,15.04
2023-03-24T08:41:32.922Z,15.04
2023-03-24T08:42:32.911Z,15.09
2023-03-24T08:43:32.904Z,15.09
2023-03-24T08:44:33.122Z,15.14
2023-03-24T08:45:32.920Z,15.07
2023-03-24T08:46:32.958Z,15.18
2023-03-24T08:47:32.891Z,15.18
2023-03-24T08:48:32.874Z,15.22
2023-03-24T08:49:32.861Z,15.19
2023-03-24T08:50:32.855Z,15.15
2023-03-24T08:51:32.836Z,15.10
2023-03-24T08:52:32.827Z,15.15
2023-03-24T08:53:32.823Z,15.14
2023-03-24T08:54:32.820Z,15.17
2023-03-24T08:55:32.824Z,15.06
2023-03-24T08:56:32.816Z,15.09
2023-03-24T08:57:32.813Z,15.11
2023-03-24T08:58:32.788Z,15.14
2023-03-24T08:59:32.781Z,15.15
2023-03-24T09:00:32.771Z,15.10
2023-03-24T09:01:32.789Z,15.18
2023-03-24T09:02:33.593Z,15.17
2023-03-24T09:03:32.745Z,15.15
2023-03-24T09:04:32.773Z,15.06
2023-03-24T09:05:54.273Z,15.07
2023-03-24T09:06:32.721Z,15.06
2023-03-24T09:07:32.699Z,15.03
2023-03-24T09:08:32.704Z,15.02
2023-03-24T09:09:32.699Z,14.97
2023-03-24T09:10:32.710Z,14.82
2023-03-24T09:11:32.670Z,14.58
2023-03-24T09:12:32.671Z,14.18
2023-03-24T09:13:32.673Z,13.86
2023-03-24T09:14:32.654Z,13.71
2023-03-24T09:15:32.663Z,13.75
2023-03-24T09:16:32.697Z,13.78
2023-03-24T09:17:32.640Z,13.83
2023-03-24T09:18:32.627Z,13.87
2023-03-24T09:19:32.613Z,13.85
2023-03-24T09:20:32.602Z,14.00
2023-03-24T09:21:32.599Z,13.92
2023-03-24T09:22:32.579Z,13.87
2023-03-24T09:23:32.579Z,13.99
2023-03-24T09:24:32.565Z,14.00
2023-03-24T09:25:32.550Z,14.05
2023-03-24T09:26:32.548Z,13.93
2023-03-24T09:27:33.076Z,13.89
2023-03-24T09:28:32.558Z,13.87
2023-03-24T09:29:32.549Z,13.86
2023-03-24T09:30:34.624Z,13.70
2023-03-24T09:31:32.551Z,13.65
2023-03-24T09:32:32.529Z,13.65
2023-03-24T09:33:32.502Z,13.65
2023-03-24T09:34:32.498Z,13.72
2023-03-24T09:35:32.506Z,13.70
2023-03-24T09:36:32.468Z,13.62
2023-03-24T09:37:32.450Z,13.60
2023-03-24T09:38:32.446Z,13.54
2023-03-24T09:39:32.451Z,13.54
2023-03-24T09:40:32.432Z,13.54
2023-03-24T09:41:34.260Z,13.46
2023-03-24T09:42:32.404Z,13.50
2023-03-24T09:43:32.398Z,13.46
2023-03-24T09:44:32.417Z,13.50
2023-03-24T09:45:32.401Z,13.50
2023-03-24T09:46:32.391Z,13.47
2023-03-24T09:47:32.413Z,13.52
2023-03-24T09:48:32.366Z,13.44
2023-03-24T09:49:32.368Z,13.44
2023-03-24T09:50:32.340Z,13.46
2023-03-24T09:51:32.350Z,13.31
2023-03-24T09:52:32.326Z,13.33
2023-03-24T09:53:32.324Z,13.22
2023-03-24T09:54:32.311Z,13.20
2023-03-24T09:55:32.302Z,13.16
2023-03-24T09:56:32.320Z,13.03
2023-03-24T09:57:32.281Z,13.05
2023-03-24T09:58:32.295Z,13.05
2023-03-24T09:59:32.287Z,13.01
2023-03-24T10:00:32.272Z,12.97
2023-03-24T10:01:32.289Z,13.01
2023-03-24T10:02:32.336Z,12.94
2023-03-24T10:03:32.317Z,12.94
2023-03-24T10:04:33.160Z,12.82
2023-03-24T10:05:32.211Z,12.79
2023-03-24T10:06:32.221Z,12.85
2023-03-24T10:07:32.186Z,12.73
2023-03-24T10:08:32.350Z,12.73
2023-03-24T10:09:32.179Z,12.83
2023-03-24T10:10:32.180Z,12.79
2023-03-24T10:11:32.182Z,12.70
2023-03-24T10:12:32.153Z,12.62
2023-03-24T10:13:32.134Z,12.65
2023-03-24T10:14:32.138Z,12.64
2023-03-24T10:15:37.908Z,12.64
2023-03-24T10:16:32.189Z,12.64
2023-03-24T10:17:32.141Z,12.62
2023-03-24T10:18:32.113Z,12.76
2023-03-24T10:19:32.095Z,12.78
2023-03-24T10:20:32.079Z,12.76
2023-03-24T10:21:32.084Z,12.83
2023-03-24T10:22:32.059Z,12.76
2023-03-24T10:23:32.064Z,12.90
2023-03-24T10:24:32.051Z,12.83
2023-03-24T10:25:32.028Z,12.86
2023-03-24T10:26:32.020Z,12.91
2023-03-24T10:27:32.014Z,12.98
2023-03-24T10:28:32.009Z,13.15
2023-03-24T10:29:32.019Z,13.19
2023-03-24T10:30:31.994Z,13.09
2023-03-24T10:31:32.018Z,13.28
2023-03-24T10:32:32.018Z,13.41
2023-03-24T10:33:31.964Z,13.47
2023-03-24T10:34:31.959Z,13.46
2023-03-24T10:35:31.964Z,13.70
2023-03-24T10:36:31.948Z,13.65
2023-03-24T10:37:31.940Z,13.72
2023-03-24T10:38:31.942Z,13.83
2023-03-24T10:39:43.581Z,13.81
2023-03-24T10:40:33.610Z,13.87
2023-03-24T10:41:31.908Z,13.92
2023-03-24T10:42:31.916Z,13.99
2023-03-24T10:43:31.896Z,13.99
2023-03-24T10:44:31.881Z,14.10
2023-03-24T10:45:31.901Z,14.04
2023-03-24T10:46:31.890Z,13.81
2023-03-24T10:47:32.935Z,13.90
2023-03-24T10:48:31.845Z,14.04
2023-03-24T10:49:31.855Z,13.96
2023-03-24T10:50:31.843Z,13.93
2023-03-24T10:51:31.832Z,13.85
2023-03-24T10:52:31.831Z,13.74
2023-03-24T10:53:31.823Z,13.83
2023-03-24T10:54:31.810Z,13.89
2023-03-24T10:55:31.822Z,13.81
2023-03-24T10:56:31.798Z,13.89
2023-03-24T10:57:31.775Z,13.86
2023-03-24T10:58:31.777Z,13.86
2023-03-24T10:59:31.756Z,13.86
2023-03-24T11:00:31.804Z,13.92
2023-03-24T11:01:31.779Z,13.83
2023-03-24T11:02:31.852Z,13.86
2023-03-24T11:03:31.773Z,13.85
2023-03-24T11:04:31.734Z,13.79
2023-03-24T11:05:31.721Z,13.77
2023-03-24T11:06:31.700Z,13.95
2023-03-24T11:07:31.694Z,13.90
2023-03-24T11:08:31.683Z,13.97
2023-03-24T11:09:31.683Z,13.92
2023-03-24T11:10:31.672Z,14.03
2023-03-24T11:11:31.673Z,13.89
2023-03-24T11:12:31.651Z,14.00
2023-03-24T11:13:31.639Z,14.07
2023-03-24T11:14:31.639Z,14.04
2023-03-24T11:15:31.630Z,14.10
2023-03-24T11:16:31.694Z,14.03
2023-03-24T11:17:31.638Z,14.12
2023-03-24T11:18:31.626Z,14.05
2023-03-24T11:19:31.603Z,14.12
2023-03-24T11:20:31.636Z,14.20
2023-03-24T11:21:31.594Z,14.17
2023-03-24T11:22:31.577Z,14.32
2023-03-24T11:23:31.604Z,14.33
2023-03-24T11:24:31.561Z,14.40
2023-03-24T11:25:33.937Z,14.41
2023-03-24T11:26:31.570Z,14.35
2023-03-24T11:27:31.522Z,14.32
2023-03-24T11:28:31.528Z,14.30
2023-03-24T11:29:31.534Z,14.43
2023-03-24T11:30:31.523Z,14.44
2023-03-24T11:31:31.618Z,14.45
2023-03-24T11:32:31.510Z,14.62
2023-03-24T11:33:35.182Z,14.54
2023-03-24T11:34:31.493Z,14.54
2023-03-24T11:35:41.405Z,14.62
2023-03-24T11:36:31.476Z,14.63
2023-03-24T11:37:31.451Z,14.62
2023-03-24T11:38:31.461Z,14.55
2023-03-24T11:39:31.474Z,14.66
2023-03-24T11:40:31.444Z,14.70
2023-03-24T11:41:31.426Z,14.81
2023-03-24T11:42:31.415Z,14.79
2023-03-24T11:43:31.422Z,14.97
2023-03-24T11:44:31.406Z,14.96
2023-03-24T11:45:31.406Z,15.04
2023-03-24T11:46:31.436Z,15.17
2023-03-24T11:47:31.451Z,15.28
2023-03-24T11:48:31.368Z,15.27
2023-03-24T11:49:31.376Z,15.29
2023-03-24T11:50:31.364Z,15.28
2023-03-24T11:51:31.346Z,15.40
2023-03-24T11:52:31.390Z,15.42
2023-03-24T11:53:31.331Z,15.42
2023-03-24T11:54:33.040Z,15.54
2023-03-24T11:55:31.339Z,15.70
2023-03-24T11:56:31.353Z,15.77
2023-03-24T11:57:31.327Z,15.83
2023-03-24T11:58:31.303Z,15.82
2023-03-24T11:59:31.303Z,15.79
2023-03-24T12:00:33.551Z,15.75
2023-03-24T12:01:31.275Z,15.68
2023-03-24T12:02:31.355Z,15.52
2023-03-24T12:03:31.395Z,15.46
2023-03-24T12:04:31.298Z,15.54
2023-03-24T12:05:31.298Z,15.49
2023-03-24T12:06:31.290Z,15.73
2023-03-24T12:07:31.265Z,15.75
2023-03-24T12:08:31.248Z,15.82
2023-03-24T12:09:31.236Z,15.92
2023-03-24T12:10:31.214Z,15.88
2023-03-24T12:11:31.216Z,15.79
2023-03-24T12:12:32.383Z,15.77
2023-03-24T12:13:33.013Z,15.95
2023-03-24T12:14:31.205Z,16.02
2023-03-24T12:15:31.203Z,16.12
2023-03-24T12:16:31.214Z,16.10
2023-03-24T12:17:31.228Z,16.24
2023-03-24T12:18:31.222Z,16.29
2023-03-24T12:19:31.202Z,16.26
2023-03-24T12:20:31.171Z,16.38
2023-03-24T12:21:31.151Z,16.32
2023-03-24T12:22:31.165Z,16.33
2023-03-24T12:23:31.145Z,16.36
2023-03-24T12:24:31.157Z,16.29
2023-03-24T12:25:31.147Z,16.32
2023-03-24T12:26:31.173Z,16.29
2023-03-24T12:27:31.125Z,16.38
2023-03-24T12:28:31.109Z,16.41
2023-03-24T12:29:31.098Z,16.39
2023-03-24T12:30:31.126Z,16.39
2023-03-24T12:31:31.119Z,16.41
2023-03-24T12:32:31.108Z,16.42
2023-03-24T12:33:31.074Z,16.53
2023-03-24T12:34:31.106Z,16.60
2023-03-24T12:35:31.074Z,16.51
2023-03-24T12:36:31.045Z,16.46
2023-03-24T12:37:31.057Z,16.36
2023-03-24T12:38:31.057Z,16.42
2023-03-24T12:39:31.053Z,16.54
2023-03-24T12:40:31.131Z,16.60
2023-03-24T12:41:31.022Z,16.50
2023-03-24T12:42:31.017Z,16.69
2023-03-24T12:43:31.015Z,16.84
2023-03-24T12:44:31.001Z,16.86
2023-03-24T12:45:31.039Z,16.97
2023-03-24T12:46:40.688Z,17.04
2023-03-24T12:47:31.033Z,17.09
2023-03-24T12:48:30.993Z,17.06
2023-03-24T12:49:31.006Z,16.96
2023-03-24T12:50:30.978Z,16.96
2023-03-24T12:51:30.992Z,16.91
2023-03-24T12:52:30.945Z,16.93
2023-03-24T12:53:30.949Z,17.09
2023-03-24T12:54:30.945Z,17.22
2023-03-24T12:55:30.937Z,17.38
2023-03-24T12:56:30.982Z,17.57
2023-03-24T12:57:30.940Z,17.49
2023-03-24T12:58:30.931Z,17.71
2023-03-24T12:59:30.918Z,17.71
2023-03-24T13:00:30.915Z,17.41
2023-03-24T13:01:30.944Z,17.38
2023-03-24T13:02:31.011Z,17.51
2023-03-24T13:03:30.927Z,17.57
2023-03-24T13:04:30.881Z,17.80
2023-03-24T13:05:30.891Z,17.60
2023-03-24T13:06:30.864Z,17.67
2023-03-24T13:07:30.881Z,17.83
2023-03-24T13:08:30.890Z,17.83
2023-03-24T13:09:30.865Z,17.98
2023-03-24T13:10:30.891Z,18.34
2023-03-24T13:11:33.226Z,18.38
2023-03-24T13:12:30.856Z,18.13
2023-03-24T13:13:30.833Z,17.90
2023-03-24T13:14:30.829Z,17.74
2023-03-24T13:15:30.816Z,17.68
2023-03-24T13:16:30.853Z,17.34
2023-03-24T13:17:30.873Z,17.23
2023-03-24T13:18:30.806Z,17.20
2023-03-24T13:19:30.812Z,17.42
2023-03-24T13:20:30.798Z,17.90
2023-03-24T13:21:30.778Z,18.29
2023-03-24T13:22:30.794Z,18.52
2023-03-24T13:23:30.787Z,18.44
2023-03-24T13:24:30.780Z,18.60
2023-03-24T13:25:31.275Z,18.80
2023-03-24T13:26:30.777Z,18.92
2023-03-24T13:27:30.766Z,18.93
2023-03-24T13:28:30.765Z,18.75
2023-03-24T13:29:35.706Z,18.34
2023-03-24T13:30:30.761Z,18.40
2023-03-24T13:31:30.783Z,18.45
2023-03-24T13:32:30.750Z,18.59
2023-03-24T13:33:30.730Z,18.74
2023-03-24T13:34:30.704Z,18.71
2023-03-24T13:35:30.774Z,18.73
2023-03-24T13:36:30.702Z,19.09
2023-03-24T13:37:30.698Z,19.18
2023-03-24T13:38:30.733Z,19.15
2023-03-24T13:39:30.724Z,18.89
2023-03-24T13:40:30.745Z,19.07
2023-03-24T13:41:30.679Z,19.18
2023-03-24T13:42:30.739Z,18.74
2023-03-24T13:43:31.224Z,18.53
2023-03-24T13:44:30.717Z,18.28
2023-03-24T13:45:30.658Z,17.95
2023-03-24T13:46:30.720Z,17.63
2023-03-24T13:47:30.685Z,17.16
2023-03-24T13:48:30.700Z,17.06
2023-03-24T13:49:30.661Z,16.86
2023-03-24T13:50:30.654Z,16.84
2023-03-24T13:51:30.640Z,16.75
2023-03-24T13:52:30.628Z,16.96
2023-03-24T13:53:30.613Z,17.05
2023-03-24T13:54:30.660Z,17.11
2023-03-24T13:55:30.620Z,17.22
2023-03-24T13:56:30.625Z,17.15
2023-03-24T13:57:30.585Z,17.33
2023-03-24T13:58:30.608Z,17.24
2023-03-24T13:59:30.582Z,17.49
2023-03-24T14:00:30.593Z,17.60
2023-03-24T14:01:30.582Z,17.67
2023-03-24T14:02:30.656Z,17.83
2023-03-24T14:03:30.701Z,18.04
2023-03-24T14:04:30.557Z,18.16
2023-03-24T14:05:30.563Z,18.53
2023-03-24T14:06:30.537Z,18.95
2023-03-24T14:07:30.572Z,19.15
2023-03-24T14:08:30.545Z,19.49
2023-03-24T14:09:30.573Z,20.00
2023-03-24T14:10:30.558Z,20.24
2023-03-24T14:11:30.516Z,20.28
2023-03-24T14:12:32.354Z,20.24
2023-03-24T14:13:30.510Z,20.29
2023-03-24T14:14:30.529Z,20.03
2023-03-24T14:15:30.633Z,19.94
2023-03-24T14:16:30.541Z,19.63
2023-03-24T14:17:30.503Z,19.86
2023-03-24T14:18:30.538Z,20.09
2023-03-24T14:19:30.611Z,20.09
2023-03-24T14:20:30.495Z,20.10
2023-03-24T14:21:30.530Z,20.10
2023-03-24T14:22:30.497Z,20.22
2023-03-24T14:23:33.070Z,20.10
2023-03-24T14:24:30.471Z,20.11
2023-03-24T14:25:30.471Z,20.13
2023-03-24T14:26:30.453Z,20.36
2023-03-24T14:27:30.465Z,20.21
2023-03-24T14:28:30.463Z,20.18
2023-03-24T14:29:30.453Z,20.34
2023-03-24T14:30:30.455Z,20.48
2023-03-24T14:31:30.495Z,20.09
2023-03-24T14:32:30.456Z,20.10
2023-03-24T14:33:30.442Z,19.94
2023-03-24T14:34:30.474Z,20.06
2023-03-24T14:35:30.594Z,19.66
2023-03-24T14:36:30.479Z,19.67
2023-03-24T14:37:30.455Z,19.58
2023-03-24T14:38:30.442Z,19.56
2023-03-24T14:39:30.465Z,19.48
2023-03-24T14:40:30.466Z,19.19
2023-03-24T14:41:30.434Z,18.90
2023-03-24T14:42:30.428Z,18.78
2023-03-24T14:43:30.461Z,18.77
2023-03-24T14:44:30.429Z,19.04
2023-03-24T14:45:32.764Z,18.75
2023-03-24T14:46:30.448Z,18.73
2023-03-24T14:47:30.463Z,18.58
2023-03-24T14:48:30.414Z,18.74